createdAt,value
2024-01-11T00:00:01.680Z,36.50
2024-01-11T00:02:31.228Z,36.60
2024-01-11T00:04:59.253Z,37.00
2024-01-11T00:07:27.328Z,37.40
2024-01-11T00:09:55.374Z,37.40
2024-01-11T00:12:23.445Z,38.50
2024-01-11T00:14:53.391Z,37.90
2024-01-11T00:17:21.496Z,38.00
2024-01-11T00:19:51.572Z,37.50
2024-01-11T00:22:19.803Z,38.00
2024-01-11T00:24:47.961Z,38.00
2024-01-11T00:27:16.057Z,38.30
2024-01-11T00:29:44.090Z,38.40
2024-01-11T00:32:12.441Z,38.30
2024-01-11T00:34:40.548Z,38.50
2024-01-11T00:37:09.974Z,38.00
2024-01-11T00:39:38.004Z,38.50
2024-01-11T00:42:06.848Z,38.50
2024-01-11T00:44:35.108Z,38.50
2024-01-11T00:47:03.287Z,38.70
2024-01-11T00:49:31.411Z,38.00
2024-01-11T00:51:59.440Z,38.10
2024-01-11T00:54:28.811Z,38.70
2024-01-11T00:56:56.832Z,38.50
2024-01-11T00:59:24.979Z,39.00
2024-01-11T01:01:53.074Z,38.70
2024-01-11T01:04:21.087Z,38.30
2024-01-11T01:06:49.159Z,39.20
2024-01-11T01:09:17.277Z,39.40
2024-01-11T01:11:46.620Z,39.00
2024-01-11T01:14:14.666Z,39.10
2024-01-11T01:16:42.737Z,39.60
2024-01-11T01:19:09.873Z,39.50
2024-01-11T01:21:37.939Z,39.10
2024-01-11T01:24:06.333Z,39.70
2024-01-11T01:26:34.475Z,39.50
2024-01-11T01:29:04.012Z,39.80
2024-01-11T01:31:38.276Z,40.00
2024-01-11T01:34:06.522Z,39.30
2024-01-11T01:36:34.707Z,39.80
2024-01-11T01:39:04.319Z,40.00
2024-01-11T01:41:32.389Z,40.00
2024-01-11T01:44:00.613Z,40.20
2024-01-11T01:46:30.606Z,40.40
2024-01-11T01:49:00.253Z,40.00
2024-01-11T01:51:32.608Z,40.00
2024-01-11T01:54:02.284Z,40.50
2024-01-11T01:56:30.657Z,40.60
2024-01-11T01:59:00.139Z,39.90
2024-01-11T02:01:30.081Z,40.60
2024-01-11T02:03:58.570Z,40.50
2024-01-11T02:06:30.455Z,40.70
2024-01-11T02:08:58.872Z,40.60
2024-01-11T02:11:26.964Z,40.40
2024-01-11T02:13:55.786Z,40.50
2024-01-11T02:16:23.827Z,40.50
2024-01-11T02:18:53.387Z,40.60
2024-01-11T02:21:22.574Z,40.80
2024-01-11T02:24:05.402Z,40.90
2024-01-11T02:26:33.788Z,40.90
2024-01-11T02:29:02.351Z,40.90
2024-01-11T02:31:30.588Z,41.10
2024-01-11T02:33:59.077Z,41.30
2024-01-11T02:36:28.297Z,41.20
2024-01-11T02:38:58.093Z,41.30
2024-01-11T02:41:27.098Z,41.50
2024-01-11T02:43:56.585Z,41.00
2024-01-11T02:46:24.635Z,41.50
2024-01-11T02:48:53.535Z,41.30
2024-01-11T02:51:21.658Z,41.20
2024-01-11T02:53:49.619Z,41.60
2024-01-11T02:56:19.066Z,41.50
2024-01-11T02:58:47.155Z,41.60
2024-01-11T03:01:15.227Z,41.70
2024-01-11T03:03:43.346Z,41.70
2024-01-11T03:06:11.417Z,41.90
2024-01-11T03:08:39.480Z,41.70
2024-01-11T03:11:07.730Z,42.00
2024-01-11T03:13:37.217Z,41.70
2024-01-11T03:16:07.301Z,42.00
2024-01-11T03:18:35.470Z,42.00
2024-01-11T03:21:03.813Z,42.00
2024-01-11T03:23:31.829Z,42.00
2024-01-11T03:25:59.900Z,42.40
2024-01-11T03:29:07.227Z,42.00
2024-01-11T03:31:35.229Z,42.30
2024-01-11T03:34:03.272Z,42.10
2024-01-11T03:36:31.385Z,42.40
2024-01-11T03:39:02.737Z,42.30
2024-01-11T03:41:30.796Z,42.30
2024-01-11T03:43:58.877Z,42.20
2024-01-11T03:46:28.315Z,42.30
2024-01-11T03:48:56.840Z,42.30
2024-01-11T03:51:24.933Z,42.50
2024-01-11T03:53:53.040Z,42.20
2024-01-11T03:56:21.130Z,42.50
2024-01-11T03:58:49.253Z,41.70
2024-01-11T04:01:17.306Z,42.40
2024-01-11T04:03:46.777Z,42.50
2024-01-11T04:06:23.342Z,42.00
2024-01-11T04:08:52.172Z,42.40
2024-01-11T04:11:20.457Z,42.20
2024-01-11T04:13:48.522Z,42.30
2024-01-11T04:16:16.495Z,42.60
2024-01-11T04:18:45.892Z,42.60
2024-01-11T04:21:48.076Z,41.50
2024-01-11T04:24:16.073Z,42.80
2024-01-11T04:26:44.124Z,42.90
2024-01-11T04:29:12.205Z,41.70
2024-01-11T04:31:39.248Z,42.00
2024-01-11T04:34:08.664Z,42.90
2024-01-11T04:36:39.563Z,42.00
2024-01-11T04:39:08.669Z,42.00
2024-01-11T04:41:38.059Z,42.70
2024-01-11T04:44:06.623Z,43.10
2024-01-11T04:46:34.728Z,41.70
2024-01-11T04:49:02.888Z,42.80
2024-01-11T04:51:32.318Z,43.30
2024-01-11T04:54:00.340Z,42.90
2024-01-11T04:56:30.661Z,42.60
2024-01-11T04:58:59.701Z,42.70
2024-01-11T05:01:27.722Z,42.60
2024-01-11T05:03:55.985Z,42.60
2024-01-11T05:06:25.659Z,41.90
2024-01-11T05:08:55.076Z,43.40
2024-01-11T05:11:25.205Z,43.60
2024-01-11T05:13:53.969Z,43.80
2024-01-11T05:16:24.415Z,43.60
2024-01-11T05:18:53.513Z,43.90
2024-01-11T05:21:22.408Z,43.40
2024-01-11T05:23:50.798Z,41.70
2024-01-11T05:26:21.604Z,39.30
2024-01-11T05:28:49.939Z,37.70
2024-01-11T05:31:18.881Z,35.20
2024-01-11T05:33:47.763Z,32.40
2024-01-11T05:36:16.185Z,33.50
2024-01-11T05:38:44.357Z,33.50
2024-01-11T05:41:12.667Z,33.30
2024-01-11T05:43:43.657Z,34.00
2024-01-11T05:46:11.683Z,33.70
2024-01-11T05:48:40.842Z,33.30
2024-01-11T05:51:10.086Z,33.40
2024-01-11T05:53:38.189Z,33.00
2024-01-11T05:56:10.564Z,33.30
2024-01-11T05:58:39.523Z,33.30
2024-01-11T06:01:08.960Z,33.20
2024-01-11T06:03:37.712Z,33.00
2024-01-11T06:06:07.149Z,33.30
2024-01-11T06:08:35.275Z,33.50
2024-01-11T06:11:03.347Z,33.40
2024-01-11T06:13:31.427Z,33.00
2024-01-11T06:15:59.413Z,32.70
2024-01-11T06:18:28.832Z,33.00
2024-01-11T06:20:56.841Z,33.20
2024-01-11T06:23:27.867Z,33.00
2024-01-11T06:25:55.999Z,33.10
2024-01-11T06:28:24.076Z,32.70
2024-01-11T06:30:52.113Z,33.10
2024-01-11T06:33:21.356Z,33.00
2024-01-11T06:35:50.967Z,32.10
2024-01-11T06:38:19.015Z,32.20
2024-01-11T06:40:47.019Z,32.90
2024-01-11T06:43:15.619Z,32.70
2024-01-11T06:45:44.877Z,32.50
2024-01-11T06:48:13.131Z,32.60
2024-01-11T06:50:41.500Z,32.20
2024-01-11T06:53:11.045Z,32.10
2024-01-11T06:55:39.096Z,32.80
2024-01-11T06:58:07.054Z,32.50
2024-01-11T07:00:35.086Z,32.60
2024-01-11T07:03:03.782Z,33.70
2024-01-11T07:05:31.870Z,33.70
2024-01-11T07:08:00.100Z,33.00
2024-01-11T07:10:29.537Z,33.90
2024-01-11T07:12:57.599Z,33.30
2024-01-11T07:15:25.772Z,34.10
2024-01-11T07:17:54.416Z,34.00
2024-01-11T07:20:22.494Z,34.40
2024-01-11T07:22:50.702Z,34.20
2024-01-11T07:25:18.747Z,34.40
2024-01-11T07:27:48.172Z,34.30
2024-01-11T07:30:17.012Z,34.70
2024-01-11T07:32:45.244Z,34.70
2024-01-11T07:35:16.491Z,34.80
2024-01-11T07:37:47.024Z,34.70
2024-01-11T07:40:15.333Z,34.80
2024-01-11T07:42:43.835Z,35.00
2024-01-11T07:45:13.367Z,35.00
2024-01-11T07:47:42.023Z,34.90
2024-01-11T07:50:11.728Z,35.20
2024-01-11T07:52:42.209Z,34.90
2024-01-11T07:55:13.353Z,35.00
2024-01-11T07:57:42.095Z,34.40
2024-01-11T08:00:13.259Z,34.90
2024-01-11T08:02:41.401Z,34.70
2024-01-11T08:05:10.403Z,34.60
2024-01-11T08:07:38.453Z,34.70
2024-01-11T08:10:10.102Z,33.80
2024-01-11T08:12:38.356Z,34.40
2024-01-11T08:15:07.534Z,33.70
2024-01-11T08:17:38.578Z,34.20
2024-01-11T08:20:09.554Z,33.60
2024-01-11T08:22:38.430Z,34.00
2024-01-11T08:25:07.705Z,34.00
2024-01-11T08:27:35.850Z,33.80
2024-01-11T08:30:05.740Z,34.00
2024-01-11T08:32:40.011Z,33.00
2024-01-11T08:35:12.764Z,32.90
2024-01-11T08:37:41.116Z,31.60
2024-01-11T08:40:12.050Z,32.40
2024-01-11T08:42:43.563Z,32.40
2024-01-11T08:45:18.663Z,32.10
2024-01-11T08:47:47.760Z,31.70
2024-01-11T08:50:20.797Z,32.30
2024-01-11T08:52:50.685Z,31.80
2024-01-11T08:55:18.865Z,31.20
2024-01-11T08:57:46.876Z,31.80
2024-01-11T09:00:18.311Z,30.80
2024-01-11T09:02:46.979Z,31.60
2024-01-11T09:05:17.912Z,31.20
2024-01-11T09:07:46.212Z,31.30
2024-01-11T09:10:14.541Z,30.40
2024-01-11T09:12:42.603Z,30.70
2024-01-11T09:15:11.484Z,31.50
2024-01-11T09:17:40.823Z,30.30
2024-01-11T09:20:10.264Z,30.50
2024-01-11T09:22:39.650Z,30.60
2024-01-11T09:25:09.434Z,30.60
2024-01-11T09:27:37.431Z,30.40
2024-01-11T09:30:07.620Z,30.50
2024-01-11T09:32:36.635Z,30.10
2024-01-11T09:35:05.762Z,30.20
2024-01-11T09:37:34.273Z,29.90
2024-01-11T09:40:03.865Z,29.90
2024-01-11T09:42:32.056Z,29.60
2024-01-11T09:45:01.054Z,29.60
2024-01-11T09:47:29.852Z,29.80
2024-01-11T09:50:00.867Z,29.40
2024-01-11T09:52:34.261Z,29.50
2024-01-11T09:55:05.142Z,29.20
2024-01-11T09:57:34.645Z,28.70
2024-01-11T10:00:08.679Z,29.10
2024-01-11T10:02:36.972Z,28.60
2024-01-11T10:05:06.127Z,28.00
2024-01-11T10:07:36.215Z,28.20
2024-01-11T10:10:08.104Z,27.90
2024-01-11T10:12:36.997Z,27.60
2024-01-11T10:15:10.610Z,27.30
2024-01-11T10:17:39.038Z,27.40
2024-01-11T10:20:11.861Z,26.90
2024-01-11T10:22:41.945Z,26.80
2024-01-11T10:25:16.616Z,26.30
2024-01-11T10:27:46.660Z,26.20
2024-01-11T10:30:17.407Z,25.80
2024-01-11T10:32:46.466Z,25.80
2024-01-11T10:35:14.930Z,25.10
2024-01-11T10:37:45.469Z,25.30
2024-01-11T10:40:16.654Z,24.90
2024-01-11T10:42:46.905Z,24.40
2024-01-11T10:45:20.194Z,24.00
2024-01-11T10:47:54.413Z,24.80
2024-01-11T10:50:25.249Z,24.40
2024-01-11T10:53:05.422Z,24.20
2024-01-11T10:55:36.836Z,23.80
2024-01-11T10:58:06.056Z,23.80
2024-01-11T11:00:35.233Z,23.70
2024-01-11T11:03:05.207Z,23.40
2024-01-11T11:05:36.217Z,23.30
2024-01-11T11:08:06.901Z,23.00
2024-01-11T11:10:36.992Z,22.90
2024-01-11T11:13:07.512Z,22.70
2024-01-11T11:15:38.404Z,22.30
2024-01-11T11:18:08.307Z,22.50
2024-01-11T11:20:36.712Z,22.30
2024-01-11T11:23:10.895Z,22.60
2024-01-11T11:25:43.435Z,22.40
2024-01-11T11:28:14.359Z,22.10
2024-01-11T11:30:44.092Z,22.10
2024-01-11T11:33:13.697Z,22.10
2024-01-11T11:35:41.968Z,21.80
2024-01-11T11:38:10.100Z,21.70
2024-01-11T11:40:41.359Z,21.60
2024-01-11T11:43:09.701Z,21.60
2024-01-11T11:45:39.179Z,21.50
2024-01-11T11:48:50.328Z,21.00
2024-01-11T11:51:20.704Z,21.40
2024-01-11T11:53:50.837Z,21.30
2024-01-11T11:56:22.213Z,21.30
2024-01-11T11:58:53.192Z,21.20
2024-01-11T12:01:21.522Z,21.40
2024-01-11T12:03:51.284Z,21.30
2024-01-11T12:06:21.569Z,20.80
2024-01-11T12:08:50.508Z,21.20
2024-01-11T12:11:22.904Z,21.10
2024-01-11T12:13:54.288Z,20.90
2024-01-11T12:16:22.993Z,21.30
2024-01-11T12:18:51.887Z,21.10
2024-01-11T12:21:21.405Z,20.80
2024-01-11T12:23:50.818Z,20.60
2024-01-11T12:26:23.173Z,20.70
2024-01-11T12:28:51.894Z,20.30
2024-01-11T12:31:20.731Z,20.30
2024-01-11T12:33:49.910Z,20.60
2024-01-11T12:36:18.150Z,20.80
2024-01-11T12:38:52.799Z,20.30
2024-01-11T12:41:25.435Z,20.60
2024-01-11T12:43:54.331Z,20.30
2024-01-11T12:46:22.433Z,20.70
2024-01-11T12:48:53.552Z,20.70
2024-01-11T12:51:23.253Z,20.50
2024-01-11T12:53:56.212Z,20.20
2024-01-11T12:56:26.736Z,20.90
2024-01-11T12:59:08.037Z,21.00
2024-01-11T13:01:36.487Z,20.70
2024-01-11T13:04:04.947Z,20.80
2024-01-11T13:06:33.275Z,20.80
2024-01-11T13:09:01.278Z,20.30
2024-01-11T13:11:30.686Z,20.50
2024-01-11T13:14:00.119Z,20.80
2024-01-11T13:16:28.196Z,20.60
2024-01-11T13:18:56.202Z,20.10
2024-01-11T13:21:24.207Z,20.90
2024-01-11T13:23:52.257Z,20.40
2024-01-11T13:26:21.452Z,20.60
2024-01-11T13:28:53.224Z,20.00
2024-01-11T13:31:21.839Z,20.10
2024-01-11T13:33:50.017Z,20.00
2024-01-11T13:36:18.207Z,20.10
2024-01-11T13:38:46.307Z,20.00
2024-01-11T13:41:14.357Z,19.80
2024-01-11T13:43:47.115Z,20.40
2024-01-11T13:46:20.651Z,19.80
2024-01-11T13:48:49.001Z,19.60
2024-01-11T13:51:17.292Z,19.10
2024-01-11T13:53:45.672Z,19.90
2024-01-11T13:56:13.981Z,20.20
2024-01-11T13:58:46.025Z,20.30
2024-01-11T14:01:14.601Z,20.00
2024-01-11T14:03:43.981Z,20.10
2024-01-11T14:06:12.193Z,19.60
2024-01-11T14:08:40.367Z,19.90
2024-01-11T14:11:08.465Z,20.20
2024-01-11T14:13:57.797Z,20.10
2024-01-11T14:16:28.086Z,20.00
2024-01-11T14:19:10.701Z,19.70
2024-01-11T14:21:38.852Z,19.90
2024-01-11T14:24:08.233Z,19.90
2024-01-11T14:26:36.664Z,20.40
2024-01-11T14:29:04.725Z,20.10
2024-01-11T14:31:32.970Z,20.30
2024-01-11T14:34:01.165Z,20.50
2024-01-11T14:36:30.969Z,20.00
2024-01-11T14:38:58.948Z,20.00
2024-01-11T14:41:26.986Z,20.20
2024-01-11T14:43:57.969Z,20.20
2024-01-11T14:46:26.256Z,20.20
2024-01-11T14:48:54.362Z,20.30
2024-01-11T14:51:22.436Z,20.20
2024-01-11T14:53:52.498Z,20.40
2024-01-11T14:56:20.795Z,20.50
2024-01-11T14:58:48.906Z,20.40
2024-01-11T15:01:16.923Z,20.40
2024-01-11T15:03:53.469Z,20.40
2024-01-11T15:06:21.850Z,20.20
2024-01-11T15:08:51.318Z,20.80
2024-01-11T15:11:19.598Z,20.40
2024-01-11T15:13:47.628Z,20.60
2024-01-11T15:16:15.625Z,20.10
2024-01-11T15:18:43.895Z,20.10
2024-01-11T15:21:12.225Z,20.50
2024-01-11T15:23:41.370Z,19.80
2024-01-11T15:26:10.800Z,20.10
2024-01-11T15:28:38.846Z,19.70
2024-01-11T15:31:07.087Z,19.70
2024-01-11T15:33:35.909Z,19.70
2024-01-11T15:36:05.051Z,19.30
2024-01-11T15:38:33.153Z,19.50
2024-01-11T15:41:01.195Z,20.00
2024-01-11T15:43:30.680Z,20.60
2024-01-11T15:45:58.948Z,21.10
2024-01-11T15:48:27.296Z,21.40
2024-01-11T15:50:56.689Z,22.00
2024-01-11T15:53:24.901Z,22.30
2024-01-11T15:55:52.931Z,22.20
2024-01-11T15:58:21.531Z,22.10
2024-01-11T16:00:50.931Z,22.30
2024-01-11T16:03:19.029Z,23.30
2024-01-11T16:05:47.202Z,23.70
2024-01-11T16:08:15.581Z,23.90
2024-01-11T16:10:43.788Z,24.10
2024-01-11T16:13:12.142Z,24.10
2024-01-11T16:15:40.106Z,24.80
2024-01-11T16:18:09.649Z,24.80
2024-01-11T16:20:37.748Z,25.10
2024-01-11T16:23:06.120Z,25.80
2024-01-11T16:25:34.193Z,25.50
2024-01-11T16:28:02.187Z,26.30
2024-01-11T16:30:30.281Z,26.10
2024-01-11T16:32:58.688Z,26.20
2024-01-11T16:35:28.122Z,26.50
2024-01-11T16:37:56.197Z,26.70
2024-01-11T16:40:24.232Z,27.00
2024-01-11T16:42:52.282Z,26.90
2024-01-11T16:45:20.715Z,27.10
2024-01-11T16:47:49.485Z,27.00
2024-01-11T16:50:17.618Z,27.40
2024-01-11T16:52:46.969Z,27.70
2024-01-11T16:55:15.040Z,27.80
2024-01-11T16:57:43.037Z,28.10
2024-01-11T17:00:12.191Z,27.80
2024-01-11T17:02:40.414Z,28.30
2024-01-11T17:05:09.319Z,28.10
2024-01-11T17:07:37.447Z,28.30
2024-01-11T17:10:08.039Z,28.40
2024-01-11T17:12:36.040Z,28.80
2024-01-11T17:15:04.587Z,28.70
2024-01-11T17:17:33.493Z,28.70
2024-01-11T17:20:01.612Z,28.80
2024-01-11T17:22:29.626Z,28.80
2024-01-11T17:24:58.735Z,29.10
2024-01-11T17:27:28.047Z,29.30
2024-01-11T17:29:56.104Z,29.40
2024-01-11T17:32:24.232Z,29.40
2024-01-11T17:34:54.169Z,29.20
2024-01-11T17:37:22.712Z,29.40
2024-01-11T17:39:51.169Z,29.60
2024-01-11T17:42:20.129Z,29.40
2024-01-11T17:44:49.684Z,30.10
2024-01-11T17:47:17.731Z,29.80
2024-01-11T17:49:45.834Z,29.80
2024-01-11T17:52:13.966Z,30.20
2024-01-11T17:54:42.019Z,30.00
2024-01-11T17:57:10.099Z,30.10
2024-01-11T17:59:38.168Z,30.10
2024-01-11T18:02:08.599Z,30.40
2024-01-11T18:04:36.757Z,30.60
2024-01-11T18:07:05.217Z,30.40
2024-01-11T18:09:35.668Z,30.70
2024-01-11T18:12:03.854Z,31.60
2024-01-11T18:14:32.057Z,30.60
2024-01-11T18:17:00.181Z,30.80
2024-01-11T18:19:29.589Z,31.00
2024-01-11T18:22:03.161Z,31.30
2024-01-11T18:24:31.176Z,31.20
2024-01-11T18:27:11.271Z,31.30
2024-01-11T18:29:39.617Z,31.30
2024-01-11T18:32:08.166Z,31.20
2024-01-11T18:34:37.575Z,31.20
2024-01-11T18:37:06.006Z,30.90
2024-01-11T18:39:34.213Z,31.40
2024-01-11T18:42:03.178Z,31.40
2024-01-11T18:44:31.582Z,31.40
2024-01-11T18:46:59.637Z,31.50
2024-01-11T18:49:27.706Z,31.70
2024-01-11T18:51:57.067Z,31.70
2024-01-11T18:54:25.115Z,31.60
2024-01-11T18:56:53.490Z,31.80
2024-01-11T18:59:22.129Z,31.50
2024-01-11T19:01:50.544Z,31.50
2024-01-11T19:04:18.613Z,31.60
2024-01-11T19:06:46.861Z,31.50
2024-01-11T19:09:16.455Z,32.40
2024-01-11T19:11:45.530Z,31.50
2024-01-11T19:14:15.346Z,31.20
2024-01-11T19:16:43.428Z,31.20
2024-01-11T19:19:11.568Z,31.60
2024-01-11T19:21:39.636Z,32.40
2024-01-11T19:24:08.562Z,32.40
2024-01-11T19:26:41.926Z,32.20
2024-01-11T19:29:10.711Z,31.90
2024-01-11T19:31:38.727Z,32.50
2024-01-11T19:34:06.755Z,31.00
2024-01-11T19:36:39.883Z,32.20
2024-01-11T19:39:08.351Z,32.50
2024-01-11T19:41:36.475Z,31.20
2024-01-11T19:44:08.935Z,32.70
2024-01-11T19:46:37.019Z,31.10
2024-01-11T19:49:05.125Z,31.30
2024-01-11T19:51:34.165Z,31.70
2024-01-11T19:54:02.181Z,31.70
2024-01-11T19:56:33.242Z,32.20
2024-01-11T19:59:01.779Z,30.70
2024-01-11T20:01:31.131Z,32.40
2024-01-11T20:04:00.750Z,31.00
2024-01-11T20:06:28.822Z,32.00
2024-01-11T20:08:58.085Z,32.10
2024-01-11T20:11:26.127Z,32.60
2024-01-11T20:13:54.379Z,32.60
2024-01-11T20:16:22.502Z,32.00
2024-01-11T20:18:51.948Z,31.80
2024-01-11T20:21:20.016Z,31.70
2024-01-11T20:23:48.054Z,31.60
2024-01-11T20:26:16.221Z,31.90
2024-01-11T20:28:44.273Z,32.60
2024-01-11T20:31:13.127Z,31.70
2024-01-11T20:33:41.510Z,32.20
2024-01-11T20:36:11.266Z,33.20
2024-01-11T20:38:39.373Z,33.20
2024-01-11T20:41:07.636Z,32.20
2024-01-11T20:43:35.830Z,32.50
2024-01-11T20:46:04.097Z,32.10
2024-01-11T20:48:32.437Z,32.30
2024-01-11T20:51:00.740Z,32.40
2024-01-11T20:53:30.225Z,32.30
2024-01-11T20:55:58.391Z,32.30
2024-01-11T20:58:26.367Z,32.20
2024-01-11T21:00:54.401Z,32.80
2024-01-11T21:03:22.522Z,31.70
2024-01-11T21:05:54.700Z,31.80
2024-01-11T21:08:22.929Z,33.00
2024-01-11T21:10:52.597Z,32.00
2024-01-11T21:13:21.072Z,33.10
2024-01-11T21:15:49.382Z,32.60
2024-01-11T21:18:17.541Z,32.50
2024-01-11T21:20:46.975Z,32.80
2024-01-11T21:23:15.746Z,31.70
2024-01-11T21:25:43.813Z,33.10
2024-01-11T21:28:14.928Z,32.60
2024-01-11T21:30:43.046Z,33.20
2024-01-11T21:33:11.305Z,32.30
2024-01-11T21:35:39.392Z,32.10
2024-01-11T21:38:07.680Z,32.40
2024-01-11T21:40:35.768Z,32.00
2024-01-11T21:43:06.338Z,32.40
2024-01-11T21:45:35.651Z,33.00
2024-01-11T21:48:03.778Z,32.60
2024-01-11T21:50:32.662Z,33.50
2024-01-11T21:53:00.741Z,32.60
2024-01-11T21:55:30.584Z,32.30
2024-01-11T21:57:58.595Z,32.80
2024-01-11T22:00:26.558Z,32.60
2024-01-11T22:02:55.959Z,33.70
2024-01-11T22:05:24.014Z,33.00
2024-01-11T22:07:52.097Z,33.00
2024-01-11T22:10:20.256Z,33.00
2024-01-11T22:12:48.331Z,33.20
2024-01-11T22:15:16.609Z,33.50
2024-01-11T22:17:45.276Z,33.10
2024-01-11T22:20:15.426Z,33.30
2024-01-11T22:22:44.604Z,32.50
2024-01-11T22:25:12.579Z,32.80
2024-01-11T22:27:40.611Z,33.10
2024-01-11T22:30:14.677Z,31.80
2024-01-11T22:32:42.942Z,32.40
2024-01-11T22:35:11.449Z,31.80
2024-01-11T22:37:40.874Z,31.00
2024-01-11T22:40:10.847Z,32.70
2024-01-11T22:42:38.806Z,32.80
2024-01-11T22:45:08.102Z,32.10
2024-01-11T22:47:36.261Z,16.50
2024-01-11T22:50:05.409Z,24.10
2024-01-11T22:52:33.510Z,22.70
2024-01-11T22:55:02.958Z,22.30
2024-01-11T22:57:31.230Z,22.30
2024-01-11T22:59:59.270Z,22.60
2024-01-11T23:02:27.482Z,22.80
2024-01-11T23:04:55.530Z,23.50
2024-01-11T23:07:23.555Z,23.80
2024-01-11T23:09:52.810Z,24.10
2024-01-11T23:12:22.230Z,23.70
2024-01-11T23:14:50.246Z,24.70
2024-01-11T23:17:18.352Z,24.70
2024-01-11T23:19:46.546Z,25.30
2024-01-11T23:22:14.682Z,25.70
2024-01-11T23:24:44.800Z,26.00
2024-01-11T23:27:12.920Z,25.70
2024-01-11T23:29:42.472Z,26.40
2024-01-11T23:32:12.125Z,26.40
2024-01-11T23:34:40.252Z,26.20
2024-01-11T23:37:08.258Z,26.90
2024-01-11T23:39:36.284Z,27.20
2024-01-11T23:42:04.824Z,27.30
2024-01-11T23:44:32.870Z,27.10
2024-01-11T23:47:02.245Z,27.40
2024-01-11T23:49:30.280Z,27.80
2024-01-11T23:51:58.325Z,27.90
2024-01-11T23:54:26.341Z,27.70
2024-01-11T23:56:54.344Z,28.10
2024-01-11T23:59:22.439Z,27.80
